Time;durP1;ratioP1;P1;durP2;ratioP2;P2;SDS_P1;SDS_P2;PMS_P1;PMS_P2;Temp;Humidity;BMP_temperature;BMP_pressure;BME280_temperature;BME280_humidity;BME280_pressure;Samples;Min_cycle;Max_cycle;Signal;HPM_P1;HPM_P2
2023/08/31 00:00:53;;;;;;;1.67;1.10;;;19.50;69.60;;;;;;5023443;28;20839;-52
2023/08/31 00:03:23;;;;;;;1.87;1.40;;;19.50;69.50;;;;;;5025794;28;20499;-51
2023/08/31 00:05:51;;;;;;;1.57;1.13;;;19.50;69.50;;;;;;4992147;28;20465;-51
2023/08/31 00:08:22;;;;;;;1.77;1.03;;;19.50;69.40;;;;;;5032848;28;20485;-53
2023/08/31 00:10:56;;;;;;;1.20;0.90;;;19.50;69.60;;;;;;4993304;28;20476;-52
2023/08/31 00:13:26;;;;;;;1.73;1.17;;;19.50;69.30;;;;;;4992948;28;20442;-51
2023/08/31 00:15:57;;;;;;;1.57;0.80;;;19.50;74.30;;;;;;5024179;28;20496;-52
2023/08/31 00:18:28;;;;;;;2.07;1.70;;;19.50;78.00;;;;;;4994114;28;20465;-50
2023/08/31 00:20:57;;;;;;;2.83;1.13;;;19.50;79.40;;;;;;5023832;28;21037;-52
2023/08/31 00:23:26;;;;;;;2.03;1.17;;;19.50;80.40;;;;;;5026121;28;20435;-52
2023/08/31 00:25:57;;;;;;;1.47;1.20;;;19.50;80.90;;;;;;5025831;28;20479;-51
2023/08/31 00:28:27;;;;;;;1.97;1.50;;;19.50;81.20;;;;;;5023846;28;21164;-53
2023/08/31 00:30:55;;;;;;;1.30;0.90;;;19.50;80.90;;;;;;5025232;28;20473;-51
2023/08/31 00:33:26;;;;;;;3.70;1.33;;;19.50;80.80;;;;;;5025502;28;20466;-53
2023/08/31 00:36:01;;;;;;;2.30;1.20;;;19.50;80.90;;;;;;5007160;28;20487;-53
2023/08/31 00:38:29;;;;;;;2.23;1.30;;;19.50;81.10;;;;;;4993293;28;20469;-50
2023/08/31 00:40:58;;;;;;;1.47;1.00;;;19.50;81.30;;;;;;5025258;28;20531;-52
2023/08/31 00:43:27;;;;;;;2.33;0.97;;;19.50;80.00;;;;;;4991839;28;20480;-53
2023/08/31 00:45:58;;;;;;;1.30;1.03;;;19.50;78.70;;;;;;4992724;28;20473;-50
2023/08/31 00:48:27;;;;;;;1.20;1.00;;;19.50;78.40;;;;;;5010808;28;20457;-53
2023/08/31 00:50:57;;;;;;;1.47;0.93;;;19.50;78.00;;;;;;5023730;28;20482;-51
2023/08/31 00:53:26;;;;;;;2.10;1.37;;;19.50;77.90;;;;;;4992865;28;20465;-54
2023/08/31 00:55:54;;;;;;;2.10;0.97;;;19.50;77.90;;;;;;4992251;28;20482;-52
2023/08/31 00:58:23;;;;;;;1.30;1.00;;;19.50;77.90;;;;;;4991718;28;20473;-50
2023/08/31 01:00:59;;;;;;;1.83;1.00;;;19.40;78.10;;;;;;5024362;28;20480;-50
2023/08/31 01:03:41;;;;;;;1.70;1.00;;;19.40;78.30;;;;;;4991629;28;20449;-52
2023/08/31 01:06:16;;;;;;;1.00;0.77;;;19.50;79.20;;;;;;4990695;28;20490;-53
2023/08/31 01:08:53;;;;;;;1.73;1.30;;;;;;;;;;4992116;28;20457;-51
2023/08/31 01:11:33;;;;;;;1.40;0.90;;;19.40;75.20;;;;;;4991920;28;21013;-52
2023/08/31 01:14:08;;;;;;;2.10;1.07;;;19.40;70.20;;;;;;5020267;28;20816;-53
2023/08/31 01:16:37;;;;;;;1.97;1.20;;;19.40;69.50;;;;;;5024986;28;20527;-52
2023/08/31 01:19:21;;;;;;;1.13;0.90;;;19.40;69.50;;;;;;4992458;28;21046;-52
2023/08/31 01:21:55;;;;;;;1.77;1.30;;;19.40;69.40;;;;;;4983663;28;21077;-53
2023/08/31 01:24:26;;;;;;;2.17;1.20;;;19.40;69.60;;;;;;5023325;28;20441;-52
2023/08/31 01:26:55;;;;;;;1.60;1.20;;;19.40;69.60;;;;;;5024936;28;20952;-53
2023/08/31 01:29:24;;;;;;;1.50;0.83;;;19.40;69.60;;;;;;5024111;28;20442;-52
2023/08/31 01:31:53;;;;;;;1.43;1.20;;;19.40;69.60;;;;;;5024575;28;20841;-51
2023/08/31 01:34:21;;;;;;;1.63;1.10;;;19.40;69.60;;;;;;5024382;28;20690;-53
2023/08/31 01:36:57;;;;;;;1.40;1.00;;;19.40;69.70;;;;;;5017252;28;20920;-52
2023/08/31 01:39:33;;;;;;;1.37;0.90;;;19.40;69.90;;;;;;5024528;28;21030;-51
2023/08/31 01:42:04;;;;;;;1.40;1.13;;;19.40;69.80;;;;;;5024965;28;20483;-51
2023/08/31 01:44:38;;;;;;;6.43;1.33;;;19.40;69.80;;;;;;5021727;28;20537;-52
2023/08/31 01:47:08;;;;;;;1.20;1.00;;;19.40;69.40;;;;;;5023781;28;20485;-52
2023/08/31 01:49:40;;;;;;;1.47;1.03;;;19.40;69.30;;;;;;5007892;28;21018;-52
2023/08/31 01:52:08;;;;;;;1.47;1.10;;;19.40;69.40;;;;;;5023077;28;20453;-51
2023/08/31 01:54:39;;;;;;;1.20;0.90;;;19.30;69.20;;;;;;5024526;28;20462;-50
2023/08/31 01:57:08;;;;;;;1.40;1.00;;;19.30;69.10;;;;;;4990791;28;20435;-52
2023/08/31 01:59:56;;;;;;;1.50;1.20;;;19.30;68.90;;;;;;5002880;28;20817;-52
2023/08/31 02:02:25;;;;;;;1.67;1.13;;;19.30;69.00;;;;;;5024343;28;20477;-51
2023/08/31 02:04:54;;;;;;;1.57;1.20;;;19.30;69.10;;;;;;5023737;28;20780;-50
2023/08/31 02:07:25;;;;;;;1.50;1.20;;;19.30;69.10;;;;;;5022634;28;20483;-52
2023/08/31 02:09:55;;;;;;;3.13;0.83;;;19.30;70.50;;;;;;5024523;28;20467;-51
2023/08/31 02:12:23;;;;;;;2.00;1.07;;;19.20;70.40;;;;;;5024609;28;20457;-52
2023/08/31 02:14:52;;;;;;;1.27;1.00;;;19.30;72.10;;;;;;5021766;28;20460;-52
2023/08/31 02:17:20;;;;;;;2.13;1.13;;;19.30;73.10;;;;;;5024444;28;20471;-50
2023/08/31 02:19:49;;;;;;;1.40;1.07;;;19.30;73.80;;;;;;5018194;28;20815;-52
2023/08/31 02:22:18;;;;;;;1.60;0.87;;;19.30;74.00;;;;;;5022129;28;21027;-53
2023/08/31 02:24:48;;;;;;;1.00;0.80;;;19.30;74.50;;;;;;4974202;28;20455;-51
2023/08/31 02:27:20;;;;;;;1.40;0.90;;;19.30;75.00;;;;;;5023857;28;20468;-53
2023/08/31 02:29:49;;;;;;;1.03;0.80;;;19.30;75.30;;;;;;5021972;28;20539;-53
2023/08/31 02:32:18;;;;;;;1.20;0.90;;;19.30;76.90;;;;;;5022274;28;20438;-52
2023/08/31 02:34:47;;;;;;;1.40;1.20;;;19.30;75.90;;;;;;4988730;28;20557;-50
2023/08/31 02:37:16;;;;;;;0.97;0.70;;;19.30;76.20;;;;;;4990169;28;21298;-52
2023/08/31 02:39:45;;;;;;;2.20;0.93;;;19.30;76.60;;;;;;5024495;28;20433;-52
2023/08/31 02:42:15;;;;;;;1.37;1.20;;;19.20;76.70;;;;;;5024150;28;20469;-52
2023/08/31 02:44:48;;;;;;;2.80;1.30;;;19.20;76.90;;;;;;5022515;28;21034;-53
2023/08/31 02:47:16;;;;;;;1.50;1.00;;;19.20;77.00;;;;;;5024245;28;20453;-53
2023/08/31 02:49:45;;;;;;;1.73;1.13;;;19.20;77.80;;;;;;4990824;28;20466;-50
2023/08/31 02:52:13;;;;;;;1.73;1.17;;;19.20;79.30;;;;;;5022163;28;20946;-51
2023/08/31 02:54:42;;;;;;;1.20;0.97;;;19.20;80.20;;;;;;5023902;28;20456;-51
2023/08/31 02:57:10;;;;;;;1.00;0.70;;;19.20;81.40;;;;;;5023457;28;20972;-51
2023/08/31 02:59:39;;;;;;;1.20;0.87;;;19.20;82.20;;;;;;5022038;28;20523;-53
2023/08/31 03:02:10;;;;;;;1.67;1.10;;;19.20;80.60;;;;;;5023135;28;20468;-51
2023/08/31 03:04:39;;;;;;;2.40;1.20;;;19.20;81.70;;;;;;4988746;28;20856;-53
2023/08/31 03:07:08;;;;;;;3.00;0.90;;;19.20;81.20;;;;;;5022470;28;20445;-52
2023/08/31 03:09:38;;;;;;;1.30;0.97;;;19.20;83.60;;;;;;4974754;28;20747;-48
2023/08/31 03:12:07;;;;;;;1.40;0.90;;;19.20;81.60;;;;;;5023479;28;20454;-52
2023/08/31 03:14:36;;;;;;;1.53;1.10;;;19.20;75.00;;;;;;4986915;28;20547;-52
2023/08/31 03:17:05;;;;;;;2.10;0.87;;;19.20;75.60;;;;;;5008537;28;20465;-53
2023/08/31 03:19:34;;;;;;;1.13;0.93;;;19.10;78.90;;;;;;4990835;28;20864;-53
2023/08/31 03:22:03;;;;;;;2.27;1.10;;;19.10;76.30;;;;;;5022494;28;20499;-51
2023/08/31 03:24:33;;;;;;;2.30;1.00;;;19.10;77.00;;;;;;5008282;28;20814;-50
2023/08/31 03:27:02;;;;;;;2.03;0.97;;;19.10;79.40;;;;;;5022719;28;20454;-53
2023/08/31 03:29:34;;;;;;;1.77;0.97;;;19.10;74.00;;;;;;4989058;28;20452;-51
2023/08/31 03:32:03;;;;;;;2.90;1.00;;;19.10;74.10;;;;;;5024002;28;20631;-52
2023/08/31 03:34:36;;;;;;;3.97;1.23;;;19.10;74.60;;;;;;5022275;28;20501;-53
2023/08/31 03:37:05;;;;;;;1.40;1.10;;;19.10;75.50;;;;;;4988961;28;20565;-53
2023/08/31 03:39:35;;;;;;;1.70;1.20;;;19.10;77.00;;;;;;4990419;28;20447;-53
2023/08/31 03:42:03;;;;;;;1.13;0.93;;;19.10;77.80;;;;;;4990910;28;21020;-53
2023/08/31 03:44:32;;;;;;;1.63;0.97;;;19.10;82.40;;;;;;4990296;28;20437;-50
2023/08/31 03:47:01;;;;;;;1.20;0.80;;;;;;;;;;5020930;28;20475;-50
2023/08/31 03:49:30;;;;;;;1.57;1.03;;;19.00;92.40;;;;;;4989511;28;20489;-51
2023/08/31 03:52:00;;;;;;;1.70;1.07;;;19.10;69.00;;;;;;4988731;28;20834;-51
2023/08/31 03:54:29;;;;;;;1.37;0.80;;;19.10;68.80;;;;;;5021427;28;20441;-50
2023/08/31 03:56:57;;;;;;;3.27;1.17;;;19.10;68.70;;;;;;4989550;28;20462;-51
2023/08/31 03:59:26;;;;;;;1.40;0.83;;;19.10;68.50;;;;;;5023193;28;20809;-50
2023/08/31 04:01:54;;;;;;;1.63;1.20;;;19.00;68.30;;;;;;5022564;28;20484;-53
2023/08/31 04:04:23;;;;;;;2.33;0.93;;;19.00;68.50;;;;;;5023156;28;20452;-51
2023/08/31 04:06:51;;;;;;;1.90;1.30;;;19.00;69.00;;;;;;5024961;28;20580;-49
2023/08/31 04:09:21;;;;;;;1.40;0.83;;;19.00;68.50;;;;;;5011009;28;20483;-52
2023/08/31 04:11:50;;;;;;;1.67;0.97;;;19.00;68.80;;;;;;5020304;28;20465;-53
2023/08/31 04:14:19;;;;;;;1.83;1.00;;;19.10;69.00;;;;;;5024853;28;20841;-51
2023/08/31 04:16:50;;;;;;;1.87;1.30;;;19.00;68.60;;;;;;4977066;28;21085;-50
2023/08/31 04:19:18;;;;;;;1.20;0.97;;;19.00;68.90;;;;;;4993244;28;20556;-53
2023/08/31 04:21:47;;;;;;;1.93;1.20;;;19.00;68.60;;;;;;4991830;28;20483;-52
2023/08/31 04:24:16;;;;;;;1.50;1.20;;;19.00;68.00;;;;;;5026096;28;20955;-51
2023/08/31 04:26:47;;;;;;;2.90;1.10;;;19.00;68.60;;;;;;4993037;28;20497;-52
2023/08/31 04:29:16;;;;;;;2.93;1.20;;;19.00;68.30;;;;;;4993986;28;20457;-53
2023/08/31 04:31:44;;;;;;;1.80;0.80;;;18.90;68.10;;;;;;4985598;28;20480;-52
2023/08/31 04:34:13;;;;;;;2.80;1.20;;;18.90;68.80;;;;;;5025904;28;20438;-50
2023/08/31 04:36:42;;;;;;;1.40;1.00;;;18.90;71.00;;;;;;4991701;28;20577;-50
2023/08/31 04:39:10;;;;;;;1.67;1.00;;;18.90;72.20;;;;;;5025502;28;21051;-52
2023/08/31 04:41:39;;;;;;;1.40;0.90;;;19.00;73.40;;;;;;5008222;28;20909;-54
2023/08/31 04:44:09;;;;;;;1.43;0.93;;;19.00;73.60;;;;;;5006785;28;20467;-50
2023/08/31 04:46:38;;;;;;;2.00;1.03;;;19.00;74.20;;;;;;4992760;28;20477;-52
2023/08/31 04:49:08;;;;;;;1.97;1.23;;;19.00;74.80;;;;;;5025735;28;20465;-49
2023/08/31 04:51:39;;;;;;;2.00;1.03;;;19.00;75.60;;;;;;4990477;28;20846;-50
2023/08/31 04:54:08;;;;;;;1.83;1.00;;;18.90;76.40;;;;;;5025690;28;20441;-52
2023/08/31 04:56:37;;;;;;;2.20;0.90;;;18.90;80.00;;;;;;4992246;28;20528;-52
2023/08/31 04:59:05;;;;;;;1.93;1.13;;;18.90;78.40;;;;;;5025421;28;20824;-52
2023/08/31 05:01:35;;;;;;;1.57;1.10;;;18.90;80.90;;;;;;5022945;28;20742;-51
2023/08/31 05:04:04;;;;;;;3.13;1.27;;;18.90;85.50;;;;;;5025317;28;20487;-49
2023/08/31 05:06:33;;;;;;;1.30;0.97;;;;;;;;;;4991140;28;20496;-50
2023/08/31 05:09:03;;;;;;;1.50;0.83;;;18.90;78.50;;;;;;5025503;28;20864;-50
2023/08/31 05:11:31;;;;;;;1.97;1.20;;;18.90;80.40;;;;;;5025095;28;20515;-52
2023/08/31 05:14:00;;;;;;;1.37;0.93;;;18.90;79.30;;;;;;5025876;28;20495;-52
2023/08/31 05:16:28;;;;;;;2.47;1.20;;;18.80;80.70;;;;;;5023225;28;20853;-51
2023/08/31 05:18:58;;;;;;;1.73;1.13;;;18.90;84.70;;;;;;5025367;28;20468;-52
2023/08/31 05:21:27;;;;;;;2.73;1.17;;;18.90;76.70;;;;;;5023094;28;20485;-52
2023/08/31 05:23:55;;;;;;;2.60;1.40;;;18.90;77.70;;;;;;5025482;28;20449;-52
2023/08/31 05:26:24;;;;;;;1.40;0.97;;;18.90;79.40;;;;;;5024278;28;20551;-51
2023/08/31 05:28:53;;;;;;;2.00;1.17;;;;;;;;;;4990709;28;20468;-51
2023/08/31 05:31:21;;;;;;;1.70;1.10;;;18.80;84.20;;;;;;5024507;28;20465;-50
2023/08/31 05:33:50;;;;;;;1.57;1.10;;;18.80;84.40;;;;;;5003666;28;20777;-51
2023/08/31 05:36:20;;;;;;;1.80;1.27;;;18.80;83.40;;;;;;5022778;28;20583;-50
2023/08/31 05:38:49;;;;;;;2.33;1.00;;;18.80;80.70;;;;;;5017817;28;20474;-51
2023/08/31 05:41:17;;;;;;;3.33;1.30;;;18.80;80.40;;;;;;5024607;28;20990;-51
2023/08/31 05:43:46;;;;;;;3.10;1.50;;;18.80;80.10;;;;;;5007559;28;20904;-51
2023/08/31 05:46:14;;;;;;;2.97;1.37;;;18.80;79.80;;;;;;5005542;28;20737;-50
2023/08/31 05:48:43;;;;;;;3.63;1.37;;;18.80;80.00;;;;;;4992104;28;20480;-50
2023/08/31 05:51:13;;;;;;;2.50;1.00;;;18.80;80.30;;;;;;5023292;28;20482;-51
2023/08/31 05:53:43;;;;;;;2.30;1.47;;;18.70;80.40;;;;;;4991009;28;20451;-49
2023/08/31 05:56:11;;;;;;;1.90;1.30;;;18.80;80.10;;;;;;4990497;28;20471;-51
2023/08/31 05:58:40;;;;;;;1.90;1.23;;;18.70;80.50;;;;;;5008664;28;20484;-53
2023/08/31 06:01:08;;;;;;;2.03;0.93;;;18.80;80.40;;;;;;5018598;28;20542;-52
2023/08/31 06:03:38;;;;;;;3.67;2.00;;;18.80;80.30;;;;;;4983636;28;20454;-51
2023/08/31 06:06:06;;;;;;;4.30;1.80;;;18.70;68.40;;;;;;4989656;28;20225;-50
2023/08/31 06:08:35;;;;;;;2.27;1.30;;;18.70;68.40;;;;;;4991538;28;20455;-50
2023/08/31 06:11:05;;;;;;;1.90;1.40;;;18.70;68.40;;;;;;5024163;28;20476;-52
2023/08/31 06:13:34;;;;;;;1.87;1.40;;;18.70;68.30;;;;;;5020991;28;20451;-53
2023/08/31 06:16:03;;;;;;;3.00;1.40;;;18.70;68.10;;;;;;5008794;28;20483;-50
2023/08/31 06:18:31;;;;;;;1.60;1.10;;;18.70;68.40;;;;;;4991351;28;20465;-52
2023/08/31 06:21:03;;;;;;;1.97;1.20;;;18.70;68.20;;;;;;4989251;28;20470;-53
2023/08/31 06:23:31;;;;;;;1.40;0.87;;;18.70;68.20;;;;;;4991296;28;20464;-51
2023/08/31 06:26:00;;;;;;;3.60;1.37;;;18.70;68.30;;;;;;5007918;28;20480;-53
2023/08/31 06:28:30;;;;;;;2.30;1.30;;;18.70;68.40;;;;;;4987865;28;20562;-52
2023/08/31 06:30:58;;;;;;;1.30;1.00;;;18.70;68.30;;;;;;5021455;28;20476;-52
2023/08/31 06:33:27;;;;;;;1.47;0.97;;;18.70;68.30;;;;;;5023321;28;20827;-51
2023/08/31 06:35:55;;;;;;;1.60;0.90;;;18.70;68.50;;;;;;4989704;28;20476;-51
2023/08/31 06:38:24;;;;;;;2.00;1.60;;;18.70;68.40;;;;;;5022860;28;20780;-51
2023/08/31 06:40:58;;;;;;;2.00;1.13;;;18.70;68.40;;;;;;5024318;28;20437;-52
2023/08/31 06:43:27;;;;;;;1.80;1.30;;;18.70;68.40;;;;;;5024032;28;20468;-52
2023/08/31 06:45:57;;;;;;;2.37;1.00;;;18.70;68.20;;;;;;5022025;28;20473;-51
2023/08/31 06:48:37;;;;;;;2.10;1.00;;;18.70;68.10;;;;;;5022751;28;20469;-49
2023/08/31 06:51:06;;;;;;;2.17;1.13;;;18.70;68.30;;;;;;5021149;28;20475;-51
2023/08/31 06:53:34;;;;;;;1.37;1.10;;;18.80;68.50;;;;;;4991016;28;20459;-52
2023/08/31 06:56:03;;;;;;;2.27;1.17;;;18.80;68.50;;;;;;5022226;28;20492;-51
2023/08/31 06:58:32;;;;;;;2.83;1.13;;;18.80;68.50;;;;;;5008611;28;20488;-50
2023/08/31 07:01:02;;;;;;;1.40;1.10;;;18.80;68.40;;;;;;5020528;28;20467;-53
2023/08/31 07:03:31;;;;;;;1.60;1.13;;;18.80;68.40;;;;;;4990524;28;20535;-53
2023/08/31 07:06:01;;;;;;;2.23;1.17;;;18.80;68.50;;;;;;5021977;28;20849;-50
2023/08/31 07:08:30;;;;;;;1.63;1.50;;;18.80;68.40;;;;;;4991217;28;20456;-50
2023/08/31 07:10:59;;;;;;;1.33;0.90;;;18.80;68.40;;;;;;5022844;28;20629;-53
2023/08/31 07:13:28;;;;;;;2.97;1.47;;;18.80;68.40;;;;;;4989810;28;20460;-52
2023/08/31 07:15:56;;;;;;;1.43;1.03;;;18.80;68.40;;;;;;4988936;28;20547;-50
2023/08/31 07:18:26;;;;;;;1.67;1.17;;;18.90;69.70;;;;;;5021888;28;20564;-53
2023/08/31 07:20:54;;;;;;;1.53;0.90;;;18.80;68.30;;;;;;5005741;28;20704;-50
2023/08/31 07:23:23;;;;;;;1.70;0.87;;;18.80;68.30;;;;;;4990667;28;20453;-52
2023/08/31 07:25:52;;;;;;;1.40;1.17;;;18.80;69.60;;;;;;5036107;28;20839;-51
2023/08/31 07:28:20;;;;;;;1.40;1.20;;;18.80;68.30;;;;;;5023611;28;20469;-50
2023/08/31 07:30:48;;;;;;;1.60;1.33;;;18.80;68.30;;;;;;4983216;28;20491;-50
2023/08/31 07:33:17;;;;;;;1.70;0.90;;;18.80;68.30;;;;;;4990107;28;20440;-53
2023/08/31 07:35:53;;;;;;;1.80;1.00;;;18.80;68.20;;;;;;5020029;28;20472;-51
2023/08/31 07:38:21;;;;;;;2.03;1.10;;;18.80;68.20;;;;;;5023416;28;20490;-51
2023/08/31 07:40:50;;;;;;;1.17;0.90;;;18.80;68.20;;;;;;5011058;28;21004;-51
2023/08/31 07:43:19;;;;;;;1.83;1.40;;;18.80;68.10;;;;;;5027004;28;20452;-51
2023/08/31 07:45:47;;;;;;;1.57;0.90;;;18.90;68.20;;;;;;4987013;28;20559;-50
2023/08/31 07:48:16;;;;;;;3.10;1.37;;;18.90;68.20;;;;;;5011847;28;20494;-51
2023/08/31 07:50:45;;;;;;;2.00;1.17;;;18.80;68.10;;;;;;4992725;28;20504;-52
2023/08/31 07:53:14;;;;;;;1.93;1.20;;;18.90;68.20;;;;;;5026549;28;20934;-52
2023/08/31 07:55:51;;;;;;;1.13;0.70;;;18.80;68.00;;;;;;5025911;28;20600;-51
2023/08/31 07:58:19;;;;;;;1.70;1.27;;;18.90;68.10;;;;;;4976639;28;20529;-52
2023/08/31 08:00:48;;;;;;;1.40;1.03;;;18.90;68.20;;;;;;4993024;28;20473;-51
2023/08/31 08:03:16;;;;;;;1.87;1.07;;;18.90;68.10;;;;;;5026621;28;20784;-51
2023/08/31 08:05:48;;;;;;;1.27;0.83;;;18.90;68.20;;;;;;5023908;28;21049;-51
2023/08/31 08:08:18;;;;;;;1.50;0.90;;;18.90;68.00;;;;;;5011320;28;20461;-52
2023/08/31 08:10:47;;;;;;;1.70;1.00;;;18.80;67.90;;;;;;5010622;28;20471;-50
2023/08/31 08:13:15;;;;;;;2.23;1.50;;;18.90;68.00;;;;;;4994071;28;20615;-52
2023/08/31 08:15:44;;;;;;;1.07;0.87;;;18.90;68.10;;;;;;4986130;28;20473;-53
2023/08/31 08:18:12;;;;;;;1.93;1.20;;;18.90;67.90;;;;;;4996910;28;20467;-50
2023/08/31 08:20:41;;;;;;;1.10;0.80;;;18.90;68.00;;;;;;4992323;28;20573;-51
2023/08/31 08:23:10;;;;;;;1.20;0.70;;;18.90;67.90;;;;;;5027278;28;20606;-53
2023/08/31 08:25:40;;;;;;;2.40;1.27;;;18.90;68.00;;;;;;4994337;28;20484;-51
2023/08/31 08:28:09;;;;;;;1.67;1.00;;;18.90;67.90;;;;;;4991878;28;20563;-53
2023/08/31 08:30:37;;;;;;;2.27;1.20;;;18.90;67.90;;;;;;5025479;28;20973;-51
2023/08/31 08:33:06;;;;;;;1.60;0.90;;;18.90;67.80;;;;;;4994063;28;20422;-50
2023/08/31 08:35:35;;;;;;;1.60;1.10;;;18.90;67.80;;;;;;5025212;28;20450;-53
2023/08/31 08:38:03;;;;;;;2.13;1.20;;;18.90;67.80;;;;;;5026433;28;20446;-50
2023/08/31 08:40:32;;;;;;;1.53;0.90;;;18.90;67.90;;;;;;5025859;28;20596;-52
2023/08/31 08:43:02;;;;;;;1.37;0.90;;;18.90;67.80;;;;;;5025369;28;20444;-50
2023/08/31 08:45:38;;;;;;;1.10;0.87;;;18.90;67.90;;;;;;5021339;28;21054;-50
2023/08/31 08:48:08;;;;;;;1.70;0.90;;;18.90;67.80;;;;;;5026176;28;20496;-50
2023/08/31 08:50:38;;;;;;;1.10;0.70;;;18.90;67.90;;;;;;5021156;28;20611;-51
2023/08/31 08:53:07;;;;;;;1.50;0.90;;;18.90;67.90;;;;;;4993378;28;20531;-51
2023/08/31 08:55:36;;;;;;;1.30;0.93;;;18.90;67.90;;;;;;5010612;28;20447;-50
2023/08/31 08:58:05;;;;;;;1.20;0.87;;;18.90;67.90;;;;;;4993913;28;20768;-50
2023/08/31 09:00:34;;;;;;;1.90;0.87;;;18.90;68.00;;;;;;5018391;28;20971;-51
2023/08/31 09:03:05;;;;;;;2.30;1.20;;;18.90;68.00;;;;;;5025514;28;21035;-51
2023/08/31 09:05:34;;;;;;;4.80;1.27;;;18.90;68.00;;;;;;5021593;28;20480;-50
2023/08/31 09:08:03;;;;;;;1.30;1.07;;;18.90;67.90;;;;;;4976332;28;20519;-53
2023/08/31 09:10:40;;;;;;;2.60;1.57;;;18.90;67.90;;;;;;4993276;28;20443;-49
2023/08/31 09:13:11;;;;;;;1.50;0.90;;;18.90;67.90;;;;;;5024258;28;20558;-50
2023/08/31 09:15:45;;;;;;;2.00;1.23;;;18.90;67.80;;;;;;4996361;28;20855;-50
2023/08/31 09:18:20;;;;;;;1.20;0.73;;;18.90;68.00;;;;;;5025765;28;20836;-50
2023/08/31 09:20:49;;;;;;;1.87;1.30;;;18.90;67.80;;;;;;4996383;28;20446;-51
2023/08/31 09:23:17;;;;;;;2.00;1.20;;;18.90;67.80;;;;;;5007000;28;20446;-53
2023/08/31 09:25:48;;;;;;;2.00;1.20;;;18.90;67.80;;;;;;5009195;28;20469;-51
2023/08/31 09:28:21;;;;;;;2.37;1.00;;;18.90;67.80;;;;;;5025501;28;20471;-50
2023/08/31 09:30:52;;;;;;;1.50;1.10;;;18.90;67.80;;;;;;4987502;28;20848;-50
2023/08/31 09:33:21;;;;;;;2.43;1.40;;;18.90;67.70;;;;;;4990897;28;20438;-50
2023/08/31 09:35:51;;;;;;;1.80;1.10;;;18.90;67.70;;;;;;5017154;28;20503;-50
2023/08/31 09:38:23;;;;;;;1.90;1.17;;;18.90;67.80;;;;;;4992192;28;20476;-50
2023/08/31 09:40:51;;;;;;;1.90;0.80;;;18.90;67.80;;;;;;5017822;28;20509;-50
2023/08/31 09:43:23;;;;;;;2.93;1.27;;;18.90;67.80;;;;;;4994023;28;20500;-52
2023/08/31 09:45:53;;;;;;;1.73;1.30;;;18.90;67.80;;;;;;5005159;28;20480;-50
2023/08/31 09:48:24;;;;;;;1.50;0.90;;;18.90;67.80;;;;;;5025048;28;20479;-52
2023/08/31 09:50:53;;;;;;;1.73;0.90;;;18.90;67.80;;;;;;5008703;28;20453;-49
2023/08/31 09:53:22;;;;;;;1.77;1.20;;;18.90;67.80;;;;;;5009148;28;20483;-51
2023/08/31 09:55:52;;;;;;;2.40;1.03;;;18.90;67.80;;;;;;4990123;28;20515;-50
2023/08/31 09:58:23;;;;;;;1.50;1.10;;;18.90;67.90;;;;;;5024940;28;20464;-50
2023/08/31 10:00:52;;;;;;;2.90;1.30;;;18.90;67.80;;;;;;4987854;28;20468;-50
2023/08/31 10:03:22;;;;;;;1.57;1.13;;;18.90;67.90;;;;;;5023844;28;20429;-51
2023/08/31 10:05:51;;;;;;;2.13;1.30;;;18.90;68.00;;;;;;4957814;28;20466;-50
2023/08/31 10:08:20;;;;;;;2.53;0.93;;;18.90;68.00;;;;;;5023287;28;21083;-49
2023/08/31 10:10:48;;;;;;;1.67;1.40;;;18.90;68.10;;;;;;5023112;28;20464;-49
2023/08/31 10:13:18;;;;;;;1.57;0.87;;;18.90;68.10;;;;;;5022175;28;20795;-49
2023/08/31 10:15:50;;;;;;;1.97;1.00;;;18.90;68.10;;;;;;5025084;28;20439;-50
2023/08/31 10:18:19;;;;;;;1.93;1.20;;;18.90;68.10;;;;;;5024827;28;20456;-50
2023/08/31 10:20:48;;;;;;;2.27;1.60;;;18.90;68.20;;;;;;5004451;28;20474;-49
2023/08/31 10:23:17;;;;;;;1.63;1.00;;;18.90;68.20;;;;;;5020374;28;20997;-50
2023/08/31 10:26:03;;;;;;;1.30;1.00;;;18.90;68.20;;;;;;5024522;28;20464;-49
2023/08/31 10:28:40;;;;;;;2.30;1.60;;;18.90;68.30;;;;;;5024352;28;20517;-49
2023/08/31 10:31:16;;;;;;;4.30;1.20;;;18.90;68.30;;;;;;5022005;28;20467;-49
2023/08/31 10:33:47;;;;;;;1.30;1.00;;;18.90;68.30;;;;;;5006912;28;20520;-49
2023/08/31 10:36:16;;;;;;;2.07;0.97;;;18.90;68.30;;;;;;5015809;28;20583;-51
2023/08/31 10:38:47;;;;;;;2.07;1.10;;;18.90;68.30;;;;;;4991026;28;20886;-51
2023/08/31 10:41:35;;;;;;;2.00;0.93;;;18.90;68.40;;;;;;5021239;28;20843;-51
2023/08/31 10:44:28;;;;;;;2.13;1.10;;;18.90;68.40;;;;;;5005146;28;21019;-50
2023/08/31 10:47:06;;;;;;;1.80;1.30;;;18.90;68.40;;;;;;5022815;28;20489;-50
2023/08/31 10:49:36;;;;;;;1.97;1.23;;;18.90;68.40;;;;;;5024303;28;20907;-50
2023/08/31 10:52:19;;;;;;;2.90;1.10;;;18.90;68.30;;;;;;4990227;28;20481;-51
2023/08/31 10:55:08;;;;;;;1.73;1.33;;;18.90;68.40;;;;;;5018908;28;20957;-50
2023/08/31 10:57:37;;;;;;;2.20;1.10;;;18.90;68.40;;;;;;5024306;28;20446;-52
2023/08/31 11:00:07;;;;;;;2.07;1.70;;;18.90;68.40;;;;;;5019783;28;20453;-50
2023/08/31 11:02:38;;;;;;;1.63;1.20;;;18.90;69.70;;;;;;5020358;28;20887;-50
2023/08/31 11:05:11;;;;;;;1.83;1.23;;;18.90;68.60;;;;;;5023346;28;20449;-51
2023/08/31 11:07:41;;;;;;;1.87;1.10;;;18.90;68.60;;;;;;4998876;28;21069;-49
2023/08/31 11:10:17;;;;;;;1.60;1.40;;;18.90;68.60;;;;;;5025941;28;20930;-50
2023/08/31 11:12:47;;;;;;;3.03;1.43;;;18.90;68.80;;;;;;5024344;28;20519;-50
2023/08/31 11:15:17;;;;;;;1.50;1.00;;;18.90;68.80;;;;;;5023901;28;20488;-50
2023/08/31 11:17:47;;;;;;;1.30;0.90;;;18.80;68.70;;;;;;5027493;28;20460;-50
2023/08/31 11:20:17;;;;;;;2.70;1.13;;;18.80;68.80;;;;;;4995534;28;20797;-51
2023/08/31 11:22:49;;;;;;;1.47;1.20;;;18.80;69.00;;;;;;5028902;28;20433;-51
2023/08/31 11:25:18;;;;;;;1.53;1.00;;;18.80;68.80;;;;;;5028416;28;20838;-51
2023/08/31 11:27:57;;;;;;;2.03;1.20;;;18.80;68.90;;;;;;5027432;28;20477;-49
2023/08/31 11:30:27;;;;;;;2.00;1.20;;;18.80;68.90;;;;;;5024023;28;20474;-50
2023/08/31 11:32:57;;;;;;;2.10;0.90;;;18.80;68.90;;;;;;5028050;28;20476;-51
2023/08/31 11:35:31;;;;;;;1.83;1.30;;;18.80;68.90;;;;;;5022248;28;20440;-51
2023/08/31 11:38:04;;;;;;;2.70;1.13;;;18.80;68.90;;;;;;4995208;28;20494;-52
2023/08/31 11:40:32;;;;;;;1.40;0.80;;;18.80;69.10;;;;;;4994082;28;20479;-50
2023/08/31 11:43:01;;;;;;;4.50;1.07;;;18.80;69.00;;;;;;5027208;28;20631;-51
2023/08/31 11:45:30;;;;;;;1.40;1.23;;;18.80;68.90;;;;;;4992186;28;20461;-49
2023/08/31 11:48:01;;;;;;;1.93;1.20;;;18.80;69.00;;;;;;5027801;28;20503;-49
2023/08/31 11:50:29;;;;;;;1.47;1.23;;;18.90;69.10;;;;;;5024761;28;20461;-50
2023/08/31 11:52:58;;;;;;;3.10;1.10;;;18.90;69.20;;;;;;4994695;28;20439;-51
2023/08/31 11:55:28;;;;;;;1.43;1.00;;;18.80;69.00;;;;;;5043809;28;20441;-51
2023/08/31 11:57:57;;;;;;;1.60;1.27;;;18.80;69.10;;;;;;5027718;28;20520;-49
2023/08/31 12:00:25;;;;;;;1.20;1.10;;;18.80;69.20;;;;;;4993934;28;20443;-51
2023/08/31 12:03:02;;;;;;;2.50;1.58;;;18.90;69.30;;;;;;5010901;28;20445;-50
2023/08/31 12:05:45;;;;;;;2.37;1.20;;;18.90;71.20;;;;;;4991907;28;20707;-50
2023/08/31 12:08:15;;;;;;;8.30;1.90;;;18.80;70.00;;;;;;5022682;28;21086;-49
2023/08/31 12:10:44;;;;;;;2.42;1.73;;;18.90;70.50;;;;;;5008567;28;21030;-51
2023/08/31 12:13:13;;;;;;;3.40;1.20;;;18.80;70.70;;;;;;5025648;28;20222;-51
2023/08/31 12:15:42;;;;;;;2.50;1.23;;;18.80;70.40;;;;;;5021122;28;20450;-50
2023/08/31 12:18:14;;;;;;;1.50;0.93;;;18.80;70.30;;;;;;5026897;28;20460;-52
2023/08/31 12:20:46;;;;;;;2.93;1.27;;;18.80;70.30;;;;;;4988576;28;20480;-51
2023/08/31 12:23:16;;;;;;;3.97;1.40;;;18.90;70.30;;;;;;5022189;28;21048;-51
2023/08/31 12:25:49;;;;;;;2.10;1.07;;;18.90;70.20;;;;;;5008553;28;20564;-50
2023/08/31 12:28:18;;;;;;;2.07;1.00;;;18.90;70.10;;;;;;5001385;28;20475;-50
2023/08/31 12:30:49;;;;;;;2.27;1.20;;;18.90;70.20;;;;;;5025271;28;20556;-50
2023/08/31 12:33:20;;;;;;;2.10;1.20;;;18.90;70.20;;;;;;5033957;28;20522;-50
2023/08/31 12:35:50;;;;;;;2.13;1.03;;;18.90;70.10;;;;;;5004669;28;20441;-50
2023/08/31 12:38:19;;;;;;;2.40;1.57;;;18.90;70.10;;;;;;4994088;28;20458;-50
2023/08/31 12:40:48;;;;;;;1.67;1.27;;;18.90;70.20;;;;;;5026032;28;20538;-51
2023/08/31 12:43:17;;;;;;;3.60;1.40;;;18.90;70.10;;;;;;4991790;28;20436;-50
2023/08/31 12:45:46;;;;;;;3.50;1.37;;;18.90;70.00;;;;;;5017140;28;20443;-50
2023/08/31 12:48:14;;;;;;;1.90;1.30;;;18.90;70.00;;;;;;5026540;28;20477;-49
2023/08/31 12:50:44;;;;;;;2.27;0.87;;;18.90;69.90;;;;;;5024476;28;20565;-50
2023/08/31 12:53:13;;;;;;;4.23;1.50;;;18.90;70.00;;;;;;5009932;28;20450;-50
2023/08/31 12:55:42;;;;;;;1.43;1.10;;;18.90;69.90;;;;;;5026290;28;20445;-50
2023/08/31 12:58:10;;;;;;;1.77;1.23;;;18.90;69.90;;;;;;4993582;28;20441;-51
2023/08/31 13:00:39;;;;;;;2.13;1.20;;;18.90;70.00;;;;;;4992914;28;20444;-50
2023/08/31 13:03:07;;;;;;;1.43;1.20;;;18.90;69.90;;;;;;5026401;28;20430;-50